createdAt,value
2022-08-28T00:00:11.121Z,18.06
2022-08-28T00:02:41.139Z,18.03
2022-08-28T00:05:14.267Z,18.02
2022-08-28T00:07:47.674Z,18.01
2022-08-28T00:10:18.895Z,18.01
2022-08-28T00:12:50.063Z,17.98
2022-08-28T00:15:23.749Z,17.92
2022-08-28T00:17:53.424Z,17.89
2022-08-28T00:20:26.841Z,17.89
2022-08-28T00:22:57.393Z,17.89
2022-08-28T00:25:28.640Z,17.88
2022-08-28T00:27:57.706Z,17.87
2022-08-28T00:30:31.003Z,17.87
2022-08-28T00:33:04.106Z,17.86
2022-08-28T00:35:36.921Z,17.85
2022-08-28T00:38:06.620Z,17.79
2022-08-28T00:40:37.222Z,17.72
2022-08-28T00:43:09.049Z,17.67
2022-08-28T00:45:40.269Z,17.60
2022-08-28T00:48:11.038Z,17.57
2022-08-28T00:50:56.774Z,17.57
2022-08-28T00:53:32.956Z,17.57
2022-08-28T00:56:08.122Z,17.55
2022-08-28T00:58:43.758Z,17.53
2022-08-28T01:01:14.683Z,17.52
2022-08-28T01:03:45.611Z,17.51
2022-08-28T01:06:20.611Z,17.51
2022-08-28T01:08:50.842Z,17.51
2022-08-28T01:11:21.679Z,17.49
2022-08-28T01:13:54.361Z,17.46
2022-08-28T01:16:30.815Z,17.42
2022-08-28T01:19:03.425Z,17.37
2022-08-28T01:21:40.610Z,17.34
2022-08-28T01:24:15.908Z,17.33
2022-08-28T01:26:45.615Z,17.31
2022-08-28T01:29:16.053Z,17.31
2022-08-28T01:31:46.003Z,17.31
2022-08-28T01:34:15.738Z,17.30
2022-08-28T01:36:48.546Z,17.30
2022-08-28T01:39:22.958Z,17.25
2022-08-28T01:41:54.713Z,17.22
2022-08-28T01:44:26.613Z,17.16
2022-08-28T01:46:57.784Z,17.15
2022-08-28T01:49:29.498Z,17.13
2022-08-28T01:52:00.779Z,17.11
2022-08-28T01:54:35.428Z,17.08
2022-08-28T01:57:05.741Z,17.04
2022-08-28T01:59:35.417Z,17.00
2022-08-28T02:02:05.193Z,16.96
2022-08-28T02:04:35.597Z,16.92
2022-08-28T02:07:05.252Z,16.89
2022-08-28T02:09:37.837Z,16.85
2022-08-28T02:12:07.847Z,16.79
2022-08-28T02:14:38.487Z,16.74
2022-08-28T02:17:08.211Z,16.70
2022-08-28T02:19:37.857Z,16.68
2022-08-28T02:22:09.411Z,16.66
2022-08-28T02:24:41.816Z,16.62
2022-08-28T02:27:11.472Z,16.58
2022-08-28T02:29:41.137Z,16.54
2022-08-28T02:32:10.988Z,16.53
2022-08-28T02:34:42.201Z,16.49
2022-08-28T02:37:13.358Z,16.49
2022-08-28T02:39:45.640Z,16.46
2022-08-28T02:42:15.475Z,16.42
2022-08-28T02:44:46.238Z,16.42
2022-08-28T02:47:16.261Z,16.42
2022-08-28T02:49:45.899Z,16.38
2022-08-28T02:52:15.881Z,16.37
2022-08-28T02:54:48.214Z,16.32
2022-08-28T02:57:17.884Z,16.26
2022-08-28T02:59:47.832Z,16.22
2022-08-28T03:02:17.473Z,16.15
2022-08-28T03:04:48.431Z,16.08
2022-08-28T03:07:19.403Z,16.03
2022-08-28T03:09:51.673Z,15.97
2022-08-28T03:12:24.092Z,15.90
2022-08-28T03:14:53.848Z,15.84
2022-08-28T03:17:24.084Z,15.79
2022-08-28T03:19:53.897Z,15.74
2022-08-28T03:22:44.621Z,15.72
2022-08-28T03:25:14.260Z,15.69
2022-08-28T03:27:43.889Z,15.67
2022-08-28T03:30:14.613Z,15.68
2022-08-28T03:32:44.199Z,15.66
2022-08-28T03:35:14.737Z,15.64
2022-08-28T03:37:44.479Z,15.65
2022-08-28T03:40:17.454Z,15.64
2022-08-28T03:42:53.618Z,15.64
2022-08-28T03:45:24.053Z,15.67
2022-08-28T03:47:55.360Z,15.70
2022-08-28T03:50:25.113Z,15.71
2022-08-28T03:52:56.855Z,15.71
2022-08-28T03:55:29.436Z,15.71
2022-08-28T03:57:59.349Z,15.74
2022-08-28T04:00:29.444Z,15.75
2022-08-28T04:02:59.570Z,15.74
2022-08-28T04:05:29.611Z,15.74
2022-08-28T04:07:59.349Z,15.72
2022-08-28T04:10:33.166Z,15.71
2022-08-28T04:13:03.257Z,15.70
2022-08-28T04:15:32.999Z,15.69
2022-08-28T04:18:02.651Z,15.67
2022-08-28T04:20:32.399Z,15.65
2022-08-28T04:23:03.558Z,15.63
2022-08-28T04:25:36.194Z,15.62
2022-08-28T04:28:06.459Z,15.60
2022-08-28T04:30:36.524Z,15.56
2022-08-28T04:33:06.240Z,15.53
2022-08-28T04:35:35.905Z,15.50
2022-08-28T04:38:06.280Z,15.50
2022-08-28T04:40:41.610Z,15.51
2022-08-28T04:43:11.747Z,15.48
2022-08-28T04:45:42.319Z,15.47
2022-08-28T04:48:13.717Z,15.46
2022-08-28T04:50:43.755Z,15.45
2022-08-28T04:53:14.518Z,15.44
2022-08-28T04:55:54.184Z,15.45
2022-08-28T04:58:25.271Z,15.46
2022-08-28T05:00:56.582Z,15.48
2022-08-28T05:03:26.854Z,15.50
2022-08-28T05:05:57.155Z,15.50
2022-08-28T05:08:28.370Z,15.47
2022-08-28T05:11:01.016Z,15.48
2022-08-28T05:13:31.163Z,15.46
2022-08-28T05:16:00.810Z,15.47
2022-08-28T05:18:30.439Z,15.50
2022-08-28T05:21:01.982Z,15.51
2022-08-28T05:23:32.324Z,15.53
2022-08-28T05:26:04.854Z,15.54
2022-08-28T05:28:34.495Z,15.56
2022-08-28T05:31:11.609Z,15.57
2022-08-28T05:33:41.348Z,15.58
2022-08-28T05:36:12.110Z,15.61
2022-08-28T05:38:42.269Z,15.64
2022-08-28T05:41:14.700Z,15.66
2022-08-28T05:43:44.326Z,15.68
2022-08-28T05:46:16.285Z,15.67
2022-08-28T05:48:48.635Z,15.69
2022-08-28T05:51:22.354Z,15.69
2022-08-28T05:53:52.682Z,15.72
2022-08-28T05:56:29.695Z,15.74
2022-08-28T05:58:59.590Z,15.77
2022-08-28T06:01:30.831Z,15.79
2022-08-28T06:04:02.914Z,15.80
2022-08-28T06:06:35.615Z,15.85
2022-08-28T06:09:08.382Z,15.89
2022-08-28T06:11:46.175Z,15.93
2022-08-28T06:14:17.951Z,15.99
2022-08-28T06:16:49.849Z,16.05
2022-08-28T06:19:20.596Z,16.09
2022-08-28T06:21:51.663Z,16.15
2022-08-28T06:24:21.611Z,16.22
2022-08-28T06:26:54.722Z,16.26
2022-08-28T06:29:29.415Z,16.26
2022-08-28T06:32:01.092Z,16.31
2022-08-28T06:34:30.919Z,16.39
2022-08-28T06:37:00.792Z,16.48
2022-08-28T06:39:30.431Z,16.49
2022-08-28T06:42:02.616Z,16.46
2022-08-28T06:44:32.458Z,16.45
2022-08-28T06:47:03.219Z,16.42
2022-08-28T06:49:34.026Z,16.47
2022-08-28T06:52:03.691Z,16.59
2022-08-28T06:54:33.870Z,16.68
2022-08-28T06:57:07.944Z,16.83
2022-08-28T06:59:37.624Z,17.05
2022-08-28T07:02:09.368Z,17.22
2022-08-28T07:04:39.158Z,17.32
2022-08-28T07:07:10.535Z,17.43
2022-08-28T07:09:48.398Z,17.59
2022-08-28T07:12:21.075Z,17.84
2022-08-28T07:14:50.765Z,18.07
2022-08-28T07:17:20.389Z,18.18
2022-08-28T07:19:50.029Z,18.21
2022-08-28T07:22:19.663Z,18.35
2022-08-28T07:24:49.377Z,18.52
2022-08-28T07:27:21.692Z,18.60
2022-08-28T07:29:52.249Z,18.65
2022-08-28T07:32:22.338Z,18.60
2022-08-28T07:34:52.071Z,18.42
2022-08-28T07:37:22.099Z,18.15
2022-08-28T07:39:51.751Z,18.00
2022-08-28T07:42:36.219Z,18.09
2022-08-28T07:45:06.176Z,18.33
2022-08-28T07:47:38.627Z,19.02
2022-08-28T07:50:08.948Z,19.77
2022-08-28T07:52:38.570Z,19.95
2022-08-28T07:55:09.791Z,20.43
2022-08-28T07:57:43.301Z,21.51
2022-08-28T08:00:14.161Z,22.31
2022-08-28T08:02:43.776Z,22.29
2022-08-28T08:05:14.434Z,21.99
2022-08-28T08:07:44.155Z,21.72
2022-08-28T08:10:19.865Z,21.86
2022-08-28T08:12:53.028Z,22.56
2022-08-28T08:15:23.417Z,23.58
2022-08-28T08:17:53.058Z,24.08
2022-08-28T08:20:22.778Z,24.48
2022-08-28T08:22:52.393Z,25.29
2022-08-28T08:25:22.035Z,26.10
2022-08-28T08:27:54.436Z,26.73
2022-08-28T08:30:24.064Z,27.00
2022-08-28T08:32:53.822Z,26.42
2022-08-28T08:35:24.310Z,26.40
2022-08-28T08:37:53.928Z,26.24
2022-08-28T08:40:23.733Z,25.73
2022-08-28T08:42:58.299Z,25.99
2022-08-28T08:45:29.525Z,26.84
2022-08-28T08:47:59.320Z,27.66
2022-08-28T08:50:31.710Z,27.71
2022-08-28T08:53:16.839Z,28.06
2022-08-28T08:55:50.137Z,28.32
2022-08-28T08:58:27.817Z,28.39
2022-08-28T09:01:03.090Z,28.57
2022-08-28T09:03:46.857Z,29.06
2022-08-28T09:06:22.792Z,29.66
2022-08-28T09:08:57.220Z,30.21
2022-08-28T09:11:34.354Z,30.54
2022-08-28T09:14:11.392Z,30.76
2022-08-28T09:16:43.663Z,30.96
2022-08-28T09:19:15.467Z,31.10
2022-08-28T09:21:47.722Z,30.42
2022-08-28T09:24:23.676Z,30.27
2022-08-28T09:27:00.101Z,30.85
2022-08-28T09:29:35.209Z,31.48
2022-08-28T09:32:20.731Z,31.52
2022-08-28T09:35:08.788Z,31.98
2022-08-28T09:37:39.745Z,32.37
2022-08-28T09:40:54.494Z,31.91
2022-08-28T09:43:26.932Z,31.72
2022-08-28T09:46:03.061Z,31.72
2022-08-28T09:48:37.691Z,31.27
2022-08-28T09:51:09.650Z,30.40
2022-08-28T09:53:41.321Z,29.83
2022-08-28T09:56:14.669Z,29.16
2022-08-28T09:58:46.215Z,28.83
2022-08-28T10:01:32.349Z,28.69
2022-08-28T10:04:12.558Z,29.08
2022-08-28T10:06:43.594Z,29.16
2022-08-28T10:09:19.379Z,28.94
2022-08-28T10:11:55.570Z,28.31
2022-08-28T10:14:38.289Z,27.09
2022-08-28T10:17:18.851Z,26.04
2022-08-28T10:19:53.671Z,25.00
2022-08-28T10:22:31.442Z,24.35
2022-08-28T10:25:11.269Z,23.83
2022-08-28T10:27:53.331Z,23.47
2022-08-28T10:30:25.228Z,23.29
2022-08-28T10:33:19.483Z,23.10
2022-08-28T10:35:51.642Z,22.87
2022-08-28T10:38:23.185Z,22.64
2022-08-28T10:40:56.991Z,22.54
2022-08-28T10:43:32.156Z,22.46
2022-08-28T10:46:04.324Z,22.39
2022-08-28T10:48:42.404Z,22.24
2022-08-28T10:51:16.753Z,22.07
2022-08-28T10:53:50.094Z,21.95
2022-08-28T10:56:22.741Z,21.87
2022-08-28T10:58:55.565Z,21.82
2022-08-28T11:01:29.957Z,21.75
2022-08-28T11:04:04.777Z,21.63
2022-08-28T11:06:38.099Z,21.42
2022-08-28T11:09:27.839Z,21.24
2022-08-28T11:12:02.025Z,21.07
2022-08-28T11:14:34.290Z,21.01
2022-08-28T11:17:07.236Z,20.91
2022-08-28T11:20:01.259Z,20.93
2022-08-28T11:22:32.781Z,21.01
2022-08-28T11:25:09.751Z,21.05
2022-08-28T11:27:41.251Z,21.03
2022-08-28T11:30:36.693Z,20.96
2022-08-28T11:33:11.803Z,20.92
2022-08-28T11:35:58.836Z,21.00
2022-08-28T11:39:13.683Z,21.10
2022-08-28T11:42:32.377Z,21.22
2022-08-28T11:45:02.719Z,21.29
2022-08-28T11:47:40.218Z,21.35
2022-08-28T11:50:18.236Z,21.41
2022-08-28T11:53:20.879Z,21.48
2022-08-28T11:56:09.493Z,21.55
2022-08-28T11:58:45.484Z,21.54
2022-08-28T12:01:16.912Z,21.54
2022-08-28T12:03:48.418Z,21.55
2022-08-28T12:06:18.150Z,21.55
2022-08-28T12:09:12.298Z,21.46
2022-08-28T12:11:56.907Z,21.40
2022-08-28T12:15:07.810Z,21.39
2022-08-28T12:17:52.982Z,21.39
2022-08-28T12:21:01.555Z,21.36
2022-08-28T12:23:41.862Z,21.33
2022-08-28T12:26:17.531Z,21.31
2022-08-28T12:28:52.139Z,21.36
2022-08-28T12:31:55.862Z,21.41
2022-08-28T12:34:34.003Z,21.48
2022-08-28T12:37:05.198Z,21.53
2022-08-28T12:39:35.566Z,21.57
2022-08-28T12:42:06.145Z,21.60
2022-08-28T12:44:38.367Z,21.53
2022-08-28T12:47:08.554Z,21.47
2022-08-28T12:49:40.248Z,21.46
2022-08-28T12:52:12.191Z,21.50
2022-08-28T12:54:47.093Z,21.55
2022-08-28T12:57:18.776Z,21.62
2022-08-28T12:59:52.865Z,21.67
2022-08-28T13:02:28.327Z,21.74
2022-08-28T13:05:00.944Z,21.77
2022-08-28T13:07:32.569Z,21.83
2022-08-28T13:10:04.467Z,21.86
2022-08-28T13:12:44.130Z,21.82
2022-08-28T13:15:48.515Z,21.80
2022-08-28T13:18:43.525Z,21.81
2022-08-28T13:21:34.426Z,21.84
2022-08-28T13:24:29.245Z,21.86
2022-08-28T13:27:03.442Z,21.86
2022-08-28T13:29:33.418Z,21.81
2022-08-28T13:32:07.716Z,21.79
2022-08-28T13:34:38.955Z,21.74
2022-08-28T13:37:45.953Z,21.74
2022-08-28T13:40:45.834Z,21.76
2022-08-28T13:43:10.192Z,21.79
2022-08-28T13:45:43.417Z,21.78
2022-08-28T13:48:17.003Z,21.81
2022-08-28T13:50:48.187Z,21.83
2022-08-28T13:53:20.023Z,21.83
2022-08-28T13:55:51.886Z,21.86
2022-08-28T13:58:21.996Z,21.89
2022-08-28T14:00:52.720Z,21.95
2022-08-28T14:03:37.562Z,22.02
2022-08-28T14:06:11.471Z,22.09
2022-08-28T14:08:41.260Z,22.14
2022-08-28T14:11:12.782Z,22.14
2022-08-28T14:13:47.470Z,22.07
2022-08-28T14:16:25.472Z,22.04
2022-08-28T14:18:59.517Z,22.09
2022-08-28T14:21:29.341Z,22.13
2022-08-28T14:23:58.961Z,22.18
2022-08-28T14:26:28.636Z,22.22
2022-08-28T14:28:58.307Z,22.22
2022-08-28T14:31:28.083Z,22.20
2022-08-28T14:34:00.707Z,22.12
2022-08-28T14:36:32.447Z,22.08
2022-08-28T14:39:06.192Z,22.06
2022-08-28T14:41:36.968Z,22.07
2022-08-28T14:44:09.182Z,22.10
2022-08-28T14:46:40.020Z,22.11
2022-08-28T14:49:14.547Z,22.07
2022-08-28T14:51:45.649Z,22.00
2022-08-28T14:54:17.050Z,21.95
2022-08-28T14:56:48.009Z,21.95
2022-08-28T14:59:24.525Z,21.95
2022-08-28T15:01:55.655Z,21.90
2022-08-28T15:04:29.124Z,21.87
2022-08-28T15:07:01.306Z,21.86
2022-08-28T15:09:31.102Z,21.88
2022-08-28T15:12:00.713Z,21.87
2022-08-28T15:14:31.405Z,21.84
2022-08-28T15:17:01.304Z,21.84
2022-08-28T15:19:33.563Z,21.87
2022-08-28T15:22:04.315Z,21.88
2022-08-28T15:24:36.038Z,21.90
2022-08-28T15:27:05.965Z,21.88
2022-08-28T15:29:35.554Z,21.89
2022-08-28T15:32:05.441Z,21.88
2022-08-28T15:34:38.664Z,21.89
2022-08-28T15:37:08.292Z,21.90
2022-08-28T15:39:50.330Z,21.91
2022-08-28T15:42:19.955Z,21.88
2022-08-28T15:44:49.551Z,21.88
2022-08-28T15:47:19.192Z,21.87
2022-08-28T15:49:57.155Z,21.87
2022-08-28T15:52:27.754Z,21.87
2022-08-28T15:54:57.628Z,21.88
2022-08-28T15:57:27.219Z,21.87
2022-08-28T15:59:57.014Z,21.84
2022-08-28T16:02:27.831Z,21.78
2022-08-28T16:05:00.384Z,21.76
2022-08-28T16:07:30.411Z,21.73
2022-08-28T16:10:00.026Z,21.70
2022-08-28T16:12:29.647Z,21.68
2022-08-28T16:14:59.242Z,21.67
2022-08-28T16:17:28.875Z,21.67
2022-08-28T16:20:01.061Z,21.66
2022-08-28T16:22:30.636Z,21.61
2022-08-28T16:25:00.229Z,21.57
2022-08-28T16:27:29.965Z,21.55
2022-08-28T16:29:59.629Z,21.52
2022-08-28T16:32:29.413Z,21.52
2022-08-28T16:35:02.777Z,21.51
2022-08-28T16:37:39.864Z,21.50
2022-08-28T16:40:11.687Z,21.46
2022-08-28T16:42:51.469Z,21.42
2022-08-28T16:45:21.544Z,21.41
2022-08-28T16:47:51.812Z,21.38
2022-08-28T16:50:24.658Z,21.34
2022-08-28T16:52:54.276Z,21.28
2022-08-28T16:55:23.983Z,21.22
2022-08-28T16:57:53.573Z,21.18
2022-08-28T17:00:24.016Z,21.12
2022-08-28T17:02:54.448Z,21.08
2022-08-28T17:05:27.321Z,21.07
2022-08-28T17:07:56.957Z,21.04
2022-08-28T17:10:27.259Z,21.01
2022-08-28T17:12:56.880Z,20.99
2022-08-28T17:15:26.526Z,20.96
2022-08-28T17:17:56.182Z,20.92
2022-08-28T17:20:41.087Z,20.87
2022-08-28T17:23:10.742Z,20.79
2022-08-28T17:25:40.348Z,20.74
2022-08-28T17:28:10.694Z,20.68
2022-08-28T17:30:40.471Z,20.62
2022-08-28T17:33:10.062Z,20.57
2022-08-28T17:35:42.445Z,20.52
2022-08-28T17:38:12.157Z,20.48
2022-08-28T17:40:41.937Z,20.45
2022-08-28T17:43:11.562Z,20.41
2022-08-28T17:45:41.211Z,20.35
2022-08-28T17:48:10.861Z,20.26
2022-08-28T17:50:43.070Z,20.19
2022-08-28T17:53:12.677Z,20.11
2022-08-28T17:55:42.331Z,20.05
2022-08-28T17:58:12.059Z,19.98
2022-08-28T18:00:42.315Z,19.91
2022-08-28T18:03:12.124Z,19.83
2022-08-28T18:05:44.838Z,19.75
2022-08-28T18:08:15.447Z,19.65
2022-08-28T18:10:45.737Z,19.55
2022-08-28T18:13:15.512Z,19.48
2022-08-28T18:15:45.294Z,19.40
2022-08-28T18:18:20.807Z,19.29
2022-08-28T18:20:59.259Z,19.17
2022-08-28T18:23:28.984Z,19.06
2022-08-28T18:25:58.629Z,18.94
2022-08-28T18:28:28.796Z,18.82
2022-08-28T18:30:58.451Z,18.71
2022-08-28T18:33:28.356Z,18.63
2022-08-28T18:36:01.108Z,18.52
2022-08-28T18:38:34.986Z,18.42
2022-08-28T18:41:06.954Z,18.35
2022-08-28T18:43:37.335Z,18.27
2022-08-28T18:46:08.875Z,18.22
2022-08-28T18:48:39.161Z,18.18
2022-08-28T18:51:12.675Z,18.13
2022-08-28T18:53:43.371Z,18.09
2022-08-28T18:56:13.386Z,18.07
2022-08-28T18:58:43.072Z,18.03
2022-08-28T19:01:13.238Z,17.98
2022-08-28T19:03:42.883Z,17.95
2022-08-28T19:06:17.926Z,17.90
2022-08-28T19:08:47.845Z,17.86
2022-08-28T19:11:17.496Z,17.82
2022-08-28T19:13:47.462Z,17.79
2022-08-28T19:16:20.529Z,17.74
2022-08-28T19:18:51.454Z,17.70
2022-08-28T19:21:26.214Z,17.66
2022-08-28T19:23:56.532Z,17.64
2022-08-28T19:26:26.501Z,17.61
2022-08-28T19:28:56.359Z,17.56
2022-08-28T19:31:26.931Z,17.52
2022-08-28T19:33:57.075Z,17.47
2022-08-28T19:36:30.346Z,17.45
2022-08-28T19:39:00.957Z,17.40
2022-08-28T19:41:32.488Z,17.37
2022-08-28T19:44:02.301Z,17.31
2022-08-28T19:46:31.994Z,17.28
2022-08-28T19:49:03.313Z,17.24
2022-08-28T19:51:35.742Z,17.21
2022-08-28T19:54:05.894Z,17.16
2022-08-28T19:56:37.396Z,17.14
2022-08-28T19:59:08.915Z,17.13
2022-08-28T20:01:40.743Z,17.09
2022-08-28T20:04:13.469Z,17.06
2022-08-28T20:06:45.857Z,17.01
2022-08-28T20:09:15.511Z,16.95
2022-08-28T20:11:46.930Z,16.91
2022-08-28T20:14:17.659Z,16.87
2022-08-28T20:16:48.817Z,16.83
2022-08-28T20:19:18.802Z,16.79
2022-08-28T20:21:52.166Z,16.73
2022-08-28T20:24:24.141Z,16.68
2022-08-28T20:26:54.528Z,16.62
2022-08-28T20:29:24.481Z,16.56
2022-08-28T20:31:54.512Z,16.48
2022-08-28T20:34:24.294Z,16.40
2022-08-28T20:36:56.562Z,16.35
2022-08-28T20:39:26.227Z,16.34
2022-08-28T20:41:55.890Z,16.33
2022-08-28T20:44:25.801Z,16.32
2022-08-28T20:46:55.864Z,16.26
2022-08-28T20:49:25.779Z,16.22
2022-08-28T20:52:01.345Z,16.18
2022-08-28T20:54:33.086Z,16.16
2022-08-28T20:57:04.586Z,16.17
2022-08-28T20:59:39.674Z,16.18
2022-08-28T21:02:11.611Z,16.19
2022-08-28T21:04:42.412Z,16.19
2022-08-28T21:07:15.537Z,16.18
2022-08-28T21:10:06.025Z,16.18
2022-08-28T21:12:35.071Z,16.16
2022-08-28T21:15:04.852Z,16.13
2022-08-28T21:17:34.521Z,16.09
2022-08-28T21:20:10.468Z,16.06
2022-08-28T21:22:43.086Z,16.03
2022-08-28T21:25:13.713Z,16.03
2022-08-28T21:27:43.361Z,16.00
2022-08-28T21:30:15.563Z,15.96
2022-08-28T21:32:45.368Z,15.94
2022-08-28T21:35:16.129Z,15.91
2022-08-28T21:37:48.789Z,15.87
2022-08-28T21:40:19.472Z,15.83
2022-08-28T21:42:49.483Z,15.79
2022-08-28T21:45:19.142Z,15.76
2022-08-28T21:47:48.778Z,15.69
2022-08-28T21:50:19.312Z,15.64
2022-08-28T21:52:51.507Z,15.60
2022-08-28T21:55:21.137Z,15.53
2022-08-28T21:57:51.431Z,15.46
2022-08-28T22:00:23.689Z,15.43
2022-08-28T22:02:53.429Z,15.40
2022-08-28T22:05:23.333Z,15.35
2022-08-28T22:07:55.540Z,15.30
2022-08-28T22:10:26.255Z,15.26
2022-08-28T22:12:55.871Z,15.20
2022-08-28T22:15:25.599Z,15.14
2022-08-28T22:17:55.203Z,15.12
2022-08-28T22:20:24.868Z,15.10
2022-08-28T22:23:09.789Z,15.09
2022-08-28T22:25:40.891Z,15.05
2022-08-28T22:28:11.911Z,15.06
2022-08-28T22:30:41.529Z,15.06
2022-08-28T22:33:11.797Z,15.07
2022-08-28T22:35:41.515Z,15.07
2022-08-28T22:38:13.910Z,15.07
2022-08-28T22:40:43.805Z,15.05
2022-08-28T22:43:13.528Z,15.02
2022-08-28T22:45:43.360Z,15.01
2022-08-28T22:48:13.466Z,14.98
2022-08-28T22:50:43.241Z,14.95
2022-08-28T22:53:15.717Z,14.91
2022-08-28T22:55:46.012Z,14.86
2022-08-28T22:58:15.724Z,14.83
2022-08-28T23:00:45.496Z,14.79
2022-08-28T23:03:15.205Z,14.78
2022-08-28T23:05:44.897Z,14.76
2022-08-28T23:08:17.115Z,14.74
2022-08-28T23:10:58.983Z,14.70
2022-08-28T23:13:29.243Z,14.68
2022-08-28T23:15:58.865Z,14.65
2022-08-28T23:18:28.642Z,14.62
2022-08-28T23:20:58.468Z,14.60
2022-08-28T23:23:31.089Z,14.58
2022-08-28T23:26:00.725Z,14.58
2022-08-28T23:28:30.354Z,14.56
2022-08-28T23:31:00.003Z,14.53
2022-08-28T23:33:29.739Z,14.47
2022-08-28T23:35:59.381Z,14.42
2022-08-28T23:38:31.665Z,14.37
2022-08-28T23:41:02.135Z,14.35
2022-08-28T23:43:32.808Z,14.28
2022-08-28T23:46:02.547Z,14.21
2022-08-28T23:48:32.317Z,14.15
2022-08-28T23:51:01.949Z,14.08
2022-08-28T23:53:35.475Z,14.00
2022-08-28T23:56:05.557Z,13.93
2022-08-28T23:58:35.209Z,13.87
